sensor_id;sensor_type;location;lat;lon;timestamp;P1;durP1;ratioP1;P2;durP2;ratioP2
34765;SDS011;20984;43.508;1.504;2023-01-15T00:01:48;13.93;;;7.78;;
34765;SDS011;20984;43.508;1.504;2023-01-15T00:04:14;16.98;;;7.82;;
34765;SDS011;20984;43.508;1.504;2023-01-15T00:06:40;18.63;;;6.95;;
34765;SDS011;20984;43.508;1.504;2023-01-15T00:09:07;12.82;;;6.72;;
34765;SDS011;20984;43.508;1.504;2023-01-15T00:11:37;13.13;;;6.60;;
34765;SDS011;20984;43.508;1.504;2023-01-15T00:14:02;17.77;;;6.85;;
34765;SDS011;20984;43.508;1.504;2023-01-15T00:16:28;22.80;;;7.70;;
34765;SDS011;20984;43.508;1.504;2023-01-15T00:18:58;12.68;;;6.80;;
34765;SDS011;20984;43.508;1.504;2023-01-15T00:21:25;17.63;;;7.28;;
34765;SDS011;20984;43.508;1.504;2023-01-15T00:23:53;13.50;;;7.43;;
34765;SDS011;20984;43.508;1.504;2023-01-15T00:26:38;17.77;;;7.95;;
34765;SDS011;20984;43.508;1.504;2023-01-15T00:29:22;20.83;;;8.63;;
34765;SDS011;20984;43.508;1.504;2023-01-15T00:31:55;12.63;;;6.85;;
34765;SDS011;20984;43.508;1.504;2023-01-15T00:34:29;12.40;;;7.07;;
34765;SDS011;20984;43.508;1.504;2023-01-15T00:36:55;18.92;;;7.40;;
34765;SDS011;20984;43.508;1.504;2023-01-15T00:39:21;15.60;;;6.90;;
34765;SDS011;20984;43.508;1.504;2023-01-15T00:41:50;19.48;;;7.90;;
34765;SDS011;20984;43.508;1.504;2023-01-15T00:44:17;18.75;;;8.40;;
34765;SDS011;20984;43.508;1.504;2023-01-15T00:46:44;15.50;;;8.88;;
34765;SDS011;20984;43.508;1.504;2023-01-15T00:49:09;14.70;;;7.50;;
34765;SDS011;20984;43.508;1.504;2023-01-15T00:51:35;18.50;;;7.68;;
34765;SDS011;20984;43.508;1.504;2023-01-15T00:54:01;13.95;;;6.93;;
34765;SDS011;20984;43.508;1.504;2023-01-15T00:56:27;18.05;;;7.28;;
34765;SDS011;20984;43.508;1.504;2023-01-15T00:58:53;14.05;;;6.95;;
34765;SDS011;20984;43.508;1.504;2023-01-15T01:01:19;14.63;;;7.63;;
34765;SDS011;20984;43.508;1.504;2023-01-15T01:03:44;17.33;;;8.43;;
34765;SDS011;20984;43.508;1.504;2023-01-15T01:06:13;16.83;;;6.72;;
34765;SDS011;20984;43.508;1.504;2023-01-15T01:08:40;10.98;;;6.53;;
34765;SDS011;20984;43.508;1.504;2023-01-15T01:11:08;19.75;;;7.78;;
34765;SDS011;20984;43.508;1.504;2023-01-15T01:13:37;15.25;;;7.57;;
34765;SDS011;20984;43.508;1.504;2023-01-15T01:16:03;18.70;;;8.23;;
34765;SDS011;20984;43.508;1.504;2023-01-15T01:18:40;18.27;;;8.32;;
34765;SDS011;20984;43.508;1.504;2023-01-15T01:21:06;19.25;;;7.93;;
34765;SDS011;20984;43.508;1.504;2023-01-15T01:23:32;20.58;;;7.55;;
34765;SDS011;20984;43.508;1.504;2023-01-15T01:25:57;15.32;;;7.53;;
34765;SDS011;20984;43.508;1.504;2023-01-15T01:28:23;16.02;;;8.25;;
34765;SDS011;20984;43.508;1.504;2023-01-15T01:30:49;16.15;;;7.32;;
34765;SDS011;20984;43.508;1.504;2023-01-15T01:33:14;17.85;;;8.13;;
34765;SDS011;20984;43.508;1.504;2023-01-15T01:35:46;19.85;;;7.63;;
34765;SDS011;20984;43.508;1.504;2023-01-15T01:38:12;12.30;;;7.03;;
34765;SDS011;20984;43.508;1.504;2023-01-15T01:40:38;22.42;;;7.53;;
34765;SDS011;20984;43.508;1.504;2023-01-15T01:43:09;15.60;;;7.85;;
34765;SDS011;20984;43.508;1.504;2023-01-15T01:45:45;14.27;;;7.70;;
34765;SDS011;20984;43.508;1.504;2023-01-15T01:48:11;18.33;;;7.32;;
34765;SDS011;20984;43.508;1.504;2023-01-15T01:50:39;15.95;;;7.50;;
34765;SDS011;20984;43.508;1.504;2023-01-15T01:53:07;13.27;;;8.02;;
34765;SDS011;20984;43.508;1.504;2023-01-15T01:55:38;12.57;;;7.55;;
34765;SDS011;20984;43.508;1.504;2023-01-15T01:58:05;19.85;;;7.72;;
34765;SDS011;20984;43.508;1.504;2023-01-15T02:00:34;23.67;;;8.50;;
34765;SDS011;20984;43.508;1.504;2023-01-15T02:03:04;14.75;;;7.20;;
34765;SDS011;20984;43.508;1.504;2023-01-15T02:05:36;20.02;;;7.68;;
34765;SDS011;20984;43.508;1.504;2023-01-15T02:08:05;20.25;;;7.63;;
34765;SDS011;20984;43.508;1.504;2023-01-15T02:10:31;18.35;;;8.25;;
34765;SDS011;20984;43.508;1.504;2023-01-15T02:13:06;26.00;;;8.48;;
34765;SDS011;20984;43.508;1.504;2023-01-15T02:15:46;22.80;;;8.07;;
34765;SDS011;20984;43.508;1.504;2023-01-15T02:21:39;17.67;;;7.72;;
34765;SDS011;20984;43.508;1.504;2023-01-15T02:27:15;17.90;;;9.13;;
34765;SDS011;20984;43.508;1.504;2023-01-15T02:29:57;17.70;;;10.05;;
34765;SDS011;20984;43.508;1.504;2023-01-15T02:32:44;19.27;;;8.55;;
34765;SDS011;20984;43.508;1.504;2023-01-15T02:37:55;19.70;;;10.20;;
34765;SDS011;20984;43.508;1.504;2023-01-15T02:42:51;21.73;;;9.60;;
34765;SDS011;20984;43.508;1.504;2023-01-15T02:45:20;29.10;;;10.00;;
34765;SDS011;20984;43.508;1.504;2023-01-15T02:47:52;16.40;;;9.52;;
34765;SDS011;20984;43.508;1.504;2023-01-15T02:50:21;22.30;;;9.30;;
34765;SDS011;20984;43.508;1.504;2023-01-15T02:52:53;24.92;;;9.63;;
34765;SDS011;20984;43.508;1.504;2023-01-15T02:55:25;22.23;;;10.63;;
34765;SDS011;20984;43.508;1.504;2023-01-15T02:57:54;22.50;;;11.45;;
34765;SDS011;20984;43.508;1.504;2023-01-15T03:00:23;18.45;;;10.05;;
34765;SDS011;20984;43.508;1.504;2023-01-15T03:03:10;27.23;;;10.30;;
34765;SDS011;20984;43.508;1.504;2023-01-15T03:08:56;22.48;;;10.80;;
34765;SDS011;20984;43.508;1.504;2023-01-15T03:11:22;21.30;;;9.98;;
34765;SDS011;20984;43.508;1.504;2023-01-15T03:22:06;22.58;;;11.02;;
34765;SDS011;20984;43.508;1.504;2023-01-15T03:27:13;23.73;;;10.50;;
34765;SDS011;20984;43.508;1.504;2023-01-15T03:29:47;19.48;;;10.48;;
34765;SDS011;20984;43.508;1.504;2023-01-15T03:32:15;19.85;;;10.20;;
34765;SDS011;20984;43.508;1.504;2023-01-15T03:34:44;22.08;;;10.43;;
34765;SDS011;20984;43.508;1.504;2023-01-15T03:37:13;20.20;;;10.05;;
34765;SDS011;20984;43.508;1.504;2023-01-15T03:39:39;20.70;;;10.73;;
34765;SDS011;20984;43.508;1.504;2023-01-15T03:44:51;18.45;;;11.35;;
34765;SDS011;20984;43.508;1.504;2023-01-15T03:47:59;22.85;;;11.00;;
34765;SDS011;20984;43.508;1.504;2023-01-15T03:50:49;27.77;;;12.02;;
34765;SDS011;20984;43.508;1.504;2023-01-15T03:53:20;21.42;;;11.82;;
34765;SDS011;20984;43.508;1.504;2023-01-15T03:56:02;24.80;;;10.68;;
34765;SDS011;20984;43.508;1.504;2023-01-15T04:01:18;20.10;;;11.43;;
34765;SDS011;20984;43.508;1.504;2023-01-15T04:03:50;21.73;;;11.63;;
34765;SDS011;20984;43.508;1.504;2023-01-15T04:06:16;22.95;;;12.23;;
34765;SDS011;20984;43.508;1.504;2023-01-15T04:08:42;26.30;;;11.60;;
34765;SDS011;20984;43.508;1.504;2023-01-15T04:11:11;24.25;;;11.52;;
34765;SDS011;20984;43.508;1.504;2023-01-15T04:13:37;24.83;;;11.55;;
34765;SDS011;20984;43.508;1.504;2023-01-15T04:16:03;20.75;;;11.32;;
34765;SDS011;20984;43.508;1.504;2023-01-15T04:18:29;28.20;;;10.90;;
34765;SDS011;20984;43.508;1.504;2023-01-15T04:20:55;24.60;;;10.18;;
34765;SDS011;20984;43.508;1.504;2023-01-15T04:23:21;26.23;;;10.85;;
34765;SDS011;20984;43.508;1.504;2023-01-15T04:25:47;18.85;;;11.15;;
34765;SDS011;20984;43.508;1.504;2023-01-15T04:28:13;17.55;;;10.82;;
34765;SDS011;20984;43.508;1.504;2023-01-15T04:30:39;19.33;;;11.68;;
34765;SDS011;20984;43.508;1.504;2023-01-15T04:33:07;19.98;;;11.45;;
34765;SDS011;20984;43.508;1.504;2023-01-15T04:35:33;15.05;;;10.18;;
34765;SDS011;20984;43.508;1.504;2023-01-15T04:38:00;25.58;;;11.40;;
34765;SDS011;20984;43.508;1.504;2023-01-15T04:40:26;15.43;;;10.82;;
34765;SDS011;20984;43.508;1.504;2023-01-15T04:43:11;25.85;;;11.38;;
34765;SDS011;20984;43.508;1.504;2023-01-15T04:45:56;22.23;;;12.02;;
34765;SDS011;20984;43.508;1.504;2023-01-15T04:48:22;22.95;;;13.25;;
34765;SDS011;20984;43.508;1.504;2023-01-15T04:50:47;23.73;;;12.30;;
34765;SDS011;20984;43.508;1.504;2023-01-15T04:53:13;25.15;;;13.15;;
34765;SDS011;20984;43.508;1.504;2023-01-15T04:55:39;19.60;;;13.77;;
34765;SDS011;20984;43.508;1.504;2023-01-15T04:58:04;20.00;;;12.05;;
34765;SDS011;20984;43.508;1.504;2023-01-15T05:00:30;26.02;;;12.63;;
34765;SDS011;20984;43.508;1.504;2023-01-15T05:02:56;22.63;;;12.43;;
34765;SDS011;20984;43.508;1.504;2023-01-15T05:05:22;18.88;;;11.75;;
34765;SDS011;20984;43.508;1.504;2023-01-15T05:07:48;22.67;;;11.45;;
34765;SDS011;20984;43.508;1.504;2023-01-15T05:10:13;17.95;;;11.38;;
34765;SDS011;20984;43.508;1.504;2023-01-15T05:12:39;26.40;;;13.90;;
34765;SDS011;20984;43.508;1.504;2023-01-15T05:15:05;19.90;;;13.02;;
34765;SDS011;20984;43.508;1.504;2023-01-15T05:17:32;27.77;;;13.68;;
34765;SDS011;20984;43.508;1.504;2023-01-15T05:19:57;23.90;;;13.38;;
34765;SDS011;20984;43.508;1.504;2023-01-15T05:22:23;24.35;;;13.30;;
34765;SDS011;20984;43.508;1.504;2023-01-15T05:24:49;25.88;;;13.90;;
34765;SDS011;20984;43.508;1.504;2023-01-15T05:27:15;24.42;;;12.23;;
34765;SDS011;20984;43.508;1.504;2023-01-15T05:29:41;19.50;;;12.25;;
34765;SDS011;20984;43.508;1.504;2023-01-15T05:32:07;26.00;;;12.10;;
34765;SDS011;20984;43.508;1.504;2023-01-15T05:34:33;17.17;;;12.32;;
34765;SDS011;20984;43.508;1.504;2023-01-15T05:36:58;27.38;;;13.52;;
34765;SDS011;20984;43.508;1.504;2023-01-15T05:39:24;20.88;;;12.95;;
34765;SDS011;20984;43.508;1.504;2023-01-15T05:41:50;21.65;;;13.38;;
34765;SDS011;20984;43.508;1.504;2023-01-15T05:46:53;30.52;;;13.18;;
34765;SDS011;20984;43.508;1.504;2023-01-15T05:49:22;17.60;;;11.75;;
34765;SDS011;20984;43.508;1.504;2023-01-15T05:51:49;21.52;;;12.23;;
34765;SDS011;20984;43.508;1.504;2023-01-15T05:54:18;20.15;;;12.88;;
34765;SDS011;20984;43.508;1.504;2023-01-15T05:56:45;27.83;;;13.00;;
34765;SDS011;20984;43.508;1.504;2023-01-15T05:59:12;20.02;;;12.68;;
34765;SDS011;20984;43.508;1.504;2023-01-15T06:01:39;18.92;;;11.90;;
34765;SDS011;20984;43.508;1.504;2023-01-15T06:04:05;16.10;;;12.68;;
34765;SDS011;20984;43.508;1.504;2023-01-15T06:06:31;19.80;;;13.02;;
34765;SDS011;20984;43.508;1.504;2023-01-15T06:08:58;21.77;;;12.15;;
34765;SDS011;20984;43.508;1.504;2023-01-15T06:11:24;18.73;;;12.15;;
34765;SDS011;20984;43.508;1.504;2023-01-15T06:13:49;19.13;;;12.50;;
34765;SDS011;20984;43.508;1.504;2023-01-15T06:16:15;13.27;;;10.88;;
34765;SDS011;20984;43.508;1.504;2023-01-15T06:18:42;17.98;;;12.65;;
34765;SDS011;20984;43.508;1.504;2023-01-15T06:21:09;17.83;;;12.93;;
34765;SDS011;20984;43.508;1.504;2023-01-15T06:23:36;22.65;;;13.60;;
34765;SDS011;20984;43.508;1.504;2023-01-15T06:26:03;20.02;;;14.68;;
34765;SDS011;20984;43.508;1.504;2023-01-15T06:28:30;25.75;;;13.25;;
34765;SDS011;20984;43.508;1.504;2023-01-15T06:30:56;25.20;;;13.73;;
34765;SDS011;20984;43.508;1.504;2023-01-15T06:33:22;20.70;;;13.98;;
34765;SDS011;20984;43.508;1.504;2023-01-15T06:35:48;18.20;;;10.70;;
34765;SDS011;20984;43.508;1.504;2023-01-15T06:38:14;9.98;;;6.80;;
34765;SDS011;20984;43.508;1.504;2023-01-15T06:40:40;18.08;;;6.50;;
34765;SDS011;20984;43.508;1.504;2023-01-15T06:43:07;11.13;;;4.90;;
34765;SDS011;20984;43.508;1.504;2023-01-15T06:45:55;10.27;;;4.93;;
34765;SDS011;20984;43.508;1.504;2023-01-15T06:48:50;10.95;;;5.78;;
34765;SDS011;20984;43.508;1.504;2023-01-15T06:51:16;11.13;;;5.25;;
34765;SDS011;20984;43.508;1.504;2023-01-15T06:53:44;9.55;;;4.70;;
34765;SDS011;20984;43.508;1.504;2023-01-15T06:56:10;12.18;;;4.82;;
34765;SDS011;20984;43.508;1.504;2023-01-15T06:58:42;7.57;;;4.47;;
34765;SDS011;20984;43.508;1.504;2023-01-15T07:01:12;8.63;;;4.30;;
34765;SDS011;20984;43.508;1.504;2023-01-15T07:03:39;6.45;;;4.10;;
34765;SDS011;20984;43.508;1.504;2023-01-15T07:06:09;10.13;;;4.15;;
34765;SDS011;20984;43.508;1.504;2023-01-15T07:08:37;8.02;;;4.60;;
34765;SDS011;20984;43.508;1.504;2023-01-15T07:11:04;12.23;;;5.18;;
34765;SDS011;20984;43.508;1.504;2023-01-15T07:13:30;9.52;;;5.00;;
34765;SDS011;20984;43.508;1.504;2023-01-15T07:15:57;9.25;;;5.50;;
34765;SDS011;20984;43.508;1.504;2023-01-15T07:18:24;9.32;;;5.53;;
34765;SDS011;20984;43.508;1.504;2023-01-15T07:20:54;8.35;;;5.05;;
34765;SDS011;20984;43.508;1.504;2023-01-15T07:23:22;9.10;;;4.28;;
34765;SDS011;20984;43.508;1.504;2023-01-15T07:25:49;4.85;;;3.70;;
34765;SDS011;20984;43.508;1.504;2023-01-15T07:28:16;7.05;;;3.58;;
34765;SDS011;20984;43.508;1.504;2023-01-15T07:30:42;4.45;;;2.72;;
34765;SDS011;20984;43.508;1.504;2023-01-15T07:33:08;3.10;;;2.60;;
34765;SDS011;20984;43.508;1.504;2023-01-15T07:35:34;2.85;;;2.60;;
34765;SDS011;20984;43.508;1.504;2023-01-15T07:38:01;2.92;;;2.70;;
34765;SDS011;20984;43.508;1.504;2023-01-15T07:40:27;3.50;;;3.17;;
34765;SDS011;20984;43.508;1.504;2023-01-15T07:42:53;2.95;;;2.65;;
34765;SDS011;20984;43.508;1.504;2023-01-15T07:45:40;2.60;;;2.40;;
34765;SDS011;20984;43.508;1.504;2023-01-15T07:48:26;3.17;;;2.60;;
34765;SDS011;20984;43.508;1.504;2023-01-15T07:51:10;3.30;;;3.00;;
34765;SDS011;20984;43.508;1.504;2023-01-15T07:53:36;3.85;;;3.10;;
34765;SDS011;20984;43.508;1.504;2023-01-15T07:56:02;2.95;;;2.70;;
34765;SDS011;20984;43.508;1.504;2023-01-15T07:58:28;3.30;;;2.92;;
34765;SDS011;20984;43.508;1.504;2023-01-15T08:00:53;3.42;;;3.13;;
34765;SDS011;20984;43.508;1.504;2023-01-15T08:03:19;2.60;;;2.40;;
34765;SDS011;20984;43.508;1.504;2023-01-15T08:05:45;2.97;;;2.78;;
34765;SDS011;20984;43.508;1.504;2023-01-15T08:08:17;2.80;;;2.60;;
34765;SDS011;20984;43.508;1.504;2023-01-15T08:10:43;2.80;;;2.60;;
34765;SDS011;20984;43.508;1.504;2023-01-15T08:13:27;2.83;;;2.63;;
34765;SDS011;20984;43.508;1.504;2023-01-15T08:16:12;3.70;;;3.40;;
34765;SDS011;20984;43.508;1.504;2023-01-15T08:18:37;3.53;;;3.22;;
34765;SDS011;20984;43.508;1.504;2023-01-15T08:21:03;3.63;;;3.33;;
34765;SDS011;20984;43.508;1.504;2023-01-15T08:23:29;4.05;;;3.63;;
34765;SDS011;20984;43.508;1.504;2023-01-15T08:25:58;3.25;;;2.95;;
34765;SDS011;20984;43.508;1.504;2023-01-15T08:28:25;4.88;;;3.17;;
34765;SDS011;20984;43.508;1.504;2023-01-15T08:30:51;3.38;;;2.95;;
34765;SDS011;20984;43.508;1.504;2023-01-15T08:33:16;4.00;;;2.90;;
34765;SDS011;20984;43.508;1.504;2023-01-15T08:35:42;3.65;;;3.25;;
34765;SDS011;20984;43.508;1.504;2023-01-15T08:38:08;6.43;;;3.70;;
34765;SDS011;20984;43.508;1.504;2023-01-15T08:40:34;3.65;;;3.33;;
34765;SDS011;20984;43.508;1.504;2023-01-15T08:43:20;2.80;;;2.60;;
34765;SDS011;20984;43.508;1.504;2023-01-15T08:45:46;4.05;;;3.33;;
34765;SDS011;20984;43.508;1.504;2023-01-15T08:48:12;2.95;;;2.65;;
34765;SDS011;20984;43.508;1.504;2023-01-15T08:50:37;3.03;;;2.70;;
34765;SDS011;20984;43.508;1.504;2023-01-15T08:53:03;3.08;;;2.80;;
34765;SDS011;20984;43.508;1.504;2023-01-15T08:55:29;3.42;;;2.83;;
34765;SDS011;20984;43.508;1.504;2023-01-15T08:57:54;3.67;;;3.13;;
34765;SDS011;20984;43.508;1.504;2023-01-15T09:00:20;7.78;;;3.78;;
34765;SDS011;20984;43.508;1.504;2023-01-15T09:02:46;8.18;;;4.05;;
34765;SDS011;20984;43.508;1.504;2023-01-15T09:05:12;6.07;;;4.53;;
34765;SDS011;20984;43.508;1.504;2023-01-15T09:07:37;12.60;;;6.78;;
34765;SDS011;20984;43.508;1.504;2023-01-15T09:10:03;7.05;;;5.45;;
34765;SDS011;20984;43.508;1.504;2023-01-15T09:12:29;5.35;;;3.92;;
34765;SDS011;20984;43.508;1.504;2023-01-15T09:14:55;4.35;;;3.30;;
34765;SDS011;20984;43.508;1.504;2023-01-15T09:17:21;3.30;;;3.00;;
34765;SDS011;20984;43.508;1.504;2023-01-15T09:19:46;4.05;;;3.17;;
34765;SDS011;20984;43.508;1.504;2023-01-15T09:22:12;4.70;;;3.15;;
34765;SDS011;20984;43.508;1.504;2023-01-15T09:24:38;7.72;;;4.90;;
34765;SDS011;20984;43.508;1.504;2023-01-15T09:27:03;4.72;;;3.60;;
34765;SDS011;20984;43.508;1.504;2023-01-15T09:29:29;3.55;;;2.88;;
34765;SDS011;20984;43.508;1.504;2023-01-15T09:31:55;4.45;;;4.05;;
34765;SDS011;20984;43.508;1.504;2023-01-15T09:34:20;4.80;;;3.85;;
34765;SDS011;20984;43.508;1.504;2023-01-15T09:36:49;7.75;;;3.58;;
34765;SDS011;20984;43.508;1.504;2023-01-15T09:39:15;4.28;;;3.22;;
34765;SDS011;20984;43.508;1.504;2023-01-15T09:55:20;3.60;;;2.97;;
34765;SDS011;20984;43.508;1.504;2023-01-15T09:57:53;3.20;;;2.95;;
34765;SDS011;20984;43.508;1.504;2023-01-15T10:00:22;3.47;;;3.00;;
34765;SDS011;20984;43.508;1.504;2023-01-15T10:03:01;4.10;;;3.40;;
34765;SDS011;20984;43.508;1.504;2023-01-15T10:05:35;4.13;;;2.80;;
34765;SDS011;20984;43.508;1.504;2023-01-15T10:08:19;6.20;;;3.10;;
34765;SDS011;20984;43.508;1.504;2023-01-15T10:10:56;5.53;;;3.78;;
34765;SDS011;20984;43.508;1.504;2023-01-15T10:16:26;5.88;;;4.15;;
34765;SDS011;20984;43.508;1.504;2023-01-15T10:18:55;4.25;;;3.85;;
34765;SDS011;20984;43.508;1.504;2023-01-15T10:24:19;5.22;;;3.50;;
34765;SDS011;20984;43.508;1.504;2023-01-15T10:26:54;10.13;;;3.72;;
34765;SDS011;20984;43.508;1.504;2023-01-15T10:37:46;6.85;;;4.30;;
34765;SDS011;20984;43.508;1.504;2023-01-15T10:40:30;6.22;;;3.67;;
34765;SDS011;20984;43.508;1.504;2023-01-15T10:43:06;6.90;;;4.18;;
34765;SDS011;20984;43.508;1.504;2023-01-15T10:48:29;4.85;;;3.83;;
34765;SDS011;20984;43.508;1.504;2023-01-15T10:51:02;6.45;;;3.50;;
34765;SDS011;20984;43.508;1.504;2023-01-15T10:53:41;4.88;;;4.45;;
34765;SDS011;20984;43.508;1.504;2023-01-15T10:56:29;9.30;;;6.00;;
34765;SDS011;20984;43.508;1.504;2023-01-15T11:01:35;5.82;;;4.68;;
34765;SDS011;20984;43.508;1.504;2023-01-15T11:04:03;8.00;;;4.15;;
34765;SDS011;20984;43.508;1.504;2023-01-15T11:06:29;5.65;;;4.30;;
34765;SDS011;20984;43.508;1.504;2023-01-15T11:08:57;6.55;;;4.65;;
34765;SDS011;20984;43.508;1.504;2023-01-15T11:17:41;7.75;;;3.88;;
34765;SDS011;20984;43.508;1.504;2023-01-15T11:20:28;9.25;;;4.80;;
34765;SDS011;20984;43.508;1.504;2023-01-15T11:23:04;5.30;;;3.65;;
34765;SDS011;20984;43.508;1.504;2023-01-15T11:25:35;8.52;;;3.50;;
34765;SDS011;20984;43.508;1.504;2023-01-15T11:28:08;4.88;;;3.58;;
34765;SDS011;20984;43.508;1.504;2023-01-15T11:30:39;5.68;;;3.60;;
34765;SDS011;20984;43.508;1.504;2023-01-15T11:33:15;5.93;;;4.25;;
34765;SDS011;20984;43.508;1.504;2023-01-15T11:35:50;7.68;;;3.53;;
34765;SDS011;20984;43.508;1.504;2023-01-15T11:38:22;5.90;;;3.80;;
34765;SDS011;20984;43.508;1.504;2023-01-15T11:40:57;5.88;;;4.40;;
34765;SDS011;20984;43.508;1.504;2023-01-15T11:43:26;7.38;;;4.43;;
34765;SDS011;20984;43.508;1.504;2023-01-15T11:46:22;4.57;;;3.30;;
34765;SDS011;20984;43.508;1.504;2023-01-15T11:49:07;5.65;;;4.45;;
34765;SDS011;20984;43.508;1.504;2023-01-15T11:51:52;4.95;;;4.40;;
34765;SDS011;20984;43.508;1.504;2023-01-15T11:54:22;8.93;;;5.43;;
34765;SDS011;20984;43.508;1.504;2023-01-15T11:56:49;6.22;;;4.35;;
34765;SDS011;20984;43.508;1.504;2023-01-15T11:59:16;9.80;;;6.70;;
34765;SDS011;20984;43.508;1.504;2023-01-15T12:04:33;6.78;;;5.18;;
34765;SDS011;20984;43.508;1.504;2023-01-15T12:07:03;7.65;;;4.32;;
34765;SDS011;20984;43.508;1.504;2023-01-15T12:09:34;6.65;;;4.10;;
34765;SDS011;20984;43.508;1.504;2023-01-15T12:12:19;6.55;;;4.30;;
34765;SDS011;20984;43.508;1.504;2023-01-15T12:28:56;10.23;;;4.30;;
34765;SDS011;20984;43.508;1.504;2023-01-15T12:31:37;8.40;;;4.63;;
34765;SDS011;20984;43.508;1.504;2023-01-15T12:34:18;8.05;;;4.45;;
34765;SDS011;20984;43.508;1.504;2023-01-15T12:42:03;8.63;;;6.00;;
34765;SDS011;20984;43.508;1.504;2023-01-15T12:44:50;8.38;;;4.18;;
34765;SDS011;20984;43.508;1.504;2023-01-15T12:47:27;6.55;;;4.07;;
34765;SDS011;20984;43.508;1.504;2023-01-15T12:50:10;5.45;;;3.35;;
34765;SDS011;20984;43.508;1.504;2023-01-15T12:52:45;8.90;;;4.20;;
34765;SDS011;20984;43.508;1.504;2023-01-15T12:55:18;5.82;;;3.60;;
34765;SDS011;20984;43.508;1.504;2023-01-15T13:05:38;7.13;;;3.95;;
34765;SDS011;20984;43.508;1.504;2023-01-15T13:08:09;4.67;;;2.97;;
34765;SDS011;20984;43.508;1.504;2023-01-15T13:10:47;5.22;;;3.22;;
34765;SDS011;20984;43.508;1.504;2023-01-15T13:13:16;5.00;;;3.38;;
34765;SDS011;20984;43.508;1.504;2023-01-15T13:16:17;3.92;;;3.10;;
34765;SDS011;20984;43.508;1.504;2023-01-15T13:22:15;4.60;;;3.50;;
34765;SDS011;20984;43.508;1.504;2023-01-15T13:27:53;8.57;;;3.65;;
34765;SDS011;20984;43.508;1.504;2023-01-15T13:30:34;6.65;;;3.63;;
34765;SDS011;20984;43.508;1.504;2023-01-15T13:33:15;7.07;;;4.32;;
34765;SDS011;20984;43.508;1.504;2023-01-15T13:35:59;7.50;;;4.63;;
34765;SDS011;20984;43.508;1.504;2023-01-15T13:38:38;6.43;;;4.60;;
34765;SDS011;20984;43.508;1.504;2023-01-15T13:41:07;10.48;;;4.40;;
34765;SDS011;20984;43.508;1.504;2023-01-15T13:46:09;8.02;;;2.97;;
34765;SDS011;20984;43.508;1.504;2023-01-15T13:48:43;5.63;;;2.83;;
34765;SDS011;20984;43.508;1.504;2023-01-15T13:51:26;5.25;;;3.90;;
34765;SDS011;20984;43.508;1.504;2023-01-15T13:53:57;5.85;;;3.60;;
34765;SDS011;20984;43.508;1.504;2023-01-15T13:56:33;13.18;;;3.47;;
34765;SDS011;20984;43.508;1.504;2023-01-15T13:59:05;6.93;;;3.08;;
34765;SDS011;20984;43.508;1.504;2023-01-15T14:01:51;5.85;;;3.50;;
34765;SDS011;20984;43.508;1.504;2023-01-15T14:04:16;13.30;;;3.50;;
34765;SDS011;20984;43.508;1.504;2023-01-15T14:06:56;5.40;;;3.88;;
34765;SDS011;20984;43.508;1.504;2023-01-15T14:36:28;6.55;;;5.20;;
34765;SDS011;20984;43.508;1.504;2023-01-15T14:38:59;11.60;;;6.32;;
34765;SDS011;20984;43.508;1.504;2023-01-15T14:41:27;17.40;;;8.60;;
34765;SDS011;20984;43.508;1.504;2023-01-15T14:43:56;20.55;;;8.77;;
34765;SDS011;20984;43.508;1.504;2023-01-15T14:48:53;18.77;;;8.27;;
34765;SDS011;20984;43.508;1.504;2023-01-15T14:51:29;10.63;;;5.80;;
34765;SDS011;20984;43.508;1.504;2023-01-15T15:02:28;15.02;;;4.30;;
34765;SDS011;20984;43.508;1.504;2023-01-15T15:05:02;8.00;;;4.82;;
34765;SDS011;20984;43.508;1.504;2023-01-15T15:07:38;11.95;;;4.35;;
34765;SDS011;20984;43.508;1.504;2023-01-15T15:18:20;8.07;;;4.30;;
34765;SDS011;20984;43.508;1.504;2023-01-15T15:31:23;9.52;;;5.15;;
34765;SDS011;20984;43.508;1.504;2023-01-15T15:33:50;12.48;;;7.30;;
34765;SDS011;20984;43.508;1.504;2023-01-15T15:36:24;14.18;;;7.30;;
34765;SDS011;20984;43.508;1.504;2023-01-15T15:38:54;11.57;;;5.90;;
34765;SDS011;20984;43.508;1.504;2023-01-15T15:41:23;11.68;;;6.57;;
34765;SDS011;20984;43.508;1.504;2023-01-15T15:44:48;8.90;;;5.15;;
34765;SDS011;20984;43.508;1.504;2023-01-15T15:47:34;7.03;;;4.95;;
34765;SDS011;20984;43.508;1.504;2023-01-15T15:50:22;12.48;;;5.63;;
34765;SDS011;20984;43.508;1.504;2023-01-15T15:52:53;5.93;;;4.45;;
34765;SDS011;20984;43.508;1.504;2023-01-15T15:55:20;11.20;;;6.32;;
34765;SDS011;20984;43.508;1.504;2023-01-15T15:57:57;9.10;;;5.00;;
34765;SDS011;20984;43.508;1.504;2023-01-15T16:00:33;11.00;;;5.72;;
34765;SDS011;20984;43.508;1.504;2023-01-15T16:03:04;12.23;;;5.82;;
34765;SDS011;20984;43.508;1.504;2023-01-15T16:05:32;13.80;;;5.28;;
34765;SDS011;20984;43.508;1.504;2023-01-15T16:08:17;11.80;;;5.60;;
34765;SDS011;20984;43.508;1.504;2023-01-15T16:10:51;6.28;;;4.50;;
34765;SDS011;20984;43.508;1.504;2023-01-15T16:13:24;10.25;;;4.85;;
34765;SDS011;20984;43.508;1.504;2023-01-15T16:15:56;13.70;;;4.95;;
34765;SDS011;20984;43.508;1.504;2023-01-15T16:20:52;8.85;;;5.53;;
34765;SDS011;20984;43.508;1.504;2023-01-15T16:23:22;5.82;;;5.13;;
34765;SDS011;20984;43.508;1.504;2023-01-15T16:25:59;10.70;;;5.55;;
34765;SDS011;20984;43.508;1.504;2023-01-15T16:28:28;9.32;;;5.57;;
34765;SDS011;20984;43.508;1.504;2023-01-15T16:31:03;9.55;;;5.32;;
34765;SDS011;20984;43.508;1.504;2023-01-15T16:33:29;10.30;;;5.68;;
34765;SDS011;20984;43.508;1.504;2023-01-15T16:35:56;13.07;;;6.82;;
34765;SDS011;20984;43.508;1.504;2023-01-15T16:38:22;8.65;;;6.03;;
34765;SDS011;20984;43.508;1.504;2023-01-15T16:40:49;13.68;;;8.07;;
34765;SDS011;20984;43.508;1.504;2023-01-15T16:43:18;15.20;;;6.90;;
34765;SDS011;20984;43.508;1.504;2023-01-15T16:48:39;41.05;;;22.80;;
34765;SDS011;20984;43.508;1.504;2023-01-15T16:53:57;15.00;;;10.27;;
34765;SDS011;20984;43.508;1.504;2023-01-15T16:59:03;9.02;;;6.85;;
34765;SDS011;20984;43.508;1.504;2023-01-15T17:01:39;10.35;;;6.10;;
34765;SDS011;20984;43.508;1.504;2023-01-15T17:07:00;11.00;;;5.25;;
34765;SDS011;20984;43.508;1.504;2023-01-15T17:09:42;7.13;;;5.90;;
34765;SDS011;20984;43.508;1.504;2023-01-15T17:14:52;15.27;;;5.65;;
34765;SDS011;20984;43.508;1.504;2023-01-15T17:19:47;10.98;;;4.70;;
34765;SDS011;20984;43.508;1.504;2023-01-15T17:22:22;7.00;;;4.72;;
34765;SDS011;20984;43.508;1.504;2023-01-15T17:24:56;5.75;;;4.18;;
34765;SDS011;20984;43.508;1.504;2023-01-15T17:27:23;9.75;;;5.25;;
34765;SDS011;20984;43.508;1.504;2023-01-15T17:29:51;11.35;;;5.90;;
34765;SDS011;20984;43.508;1.504;2023-01-15T17:32:23;10.20;;;5.57;;
34765;SDS011;20984;43.508;1.504;2023-01-15T17:34:53;10.25;;;5.88;;
34765;SDS011;20984;43.508;1.504;2023-01-15T17:37:19;10.15;;;5.88;;
34765;SDS011;20984;43.508;1.504;2023-01-15T17:39:45;12.60;;;6.20;;
34765;SDS011;20984;43.508;1.504;2023-01-15T17:42:12;14.50;;;7.70;;
34765;SDS011;20984;43.508;1.504;2023-01-15T17:44:38;8.82;;;6.07;;
34765;SDS011;20984;43.508;1.504;2023-01-15T17:47:04;10.98;;;5.68;;
34765;SDS011;20984;43.508;1.504;2023-01-15T17:49:30;10.45;;;9.35;;
34765;SDS011;20984;43.508;1.504;2023-01-15T17:51:56;46.33;;;30.58;;
34765;SDS011;20984;43.508;1.504;2023-01-15T17:54:22;26.83;;;16.38;;
34765;SDS011;20984;43.508;1.504;2023-01-15T17:57:06;54.58;;;30.20;;
34765;SDS011;20984;43.508;1.504;2023-01-15T17:59:51;27.90;;;18.92;;
34765;SDS011;20984;43.508;1.504;2023-01-15T18:02:35;12.75;;;7.55;;
34765;SDS011;20984;43.508;1.504;2023-01-15T18:05:19;19.50;;;10.60;;